sensor_id;sensor_type;location;lat;lon;timestamp;P1;durP1;ratioP1;P2;durP2;ratioP2
59127;SDS011;44912;52.754;5.994;2022-09-13T00:00:17;34.72;;;25.65;;
59127;SDS011;44912;52.754;5.994;2022-09-13T00:02:42;32.67;;;24.85;;
59127;SDS011;44912;52.754;5.994;2022-09-13T00:05:08;34.38;;;25.80;;
59127;SDS011;44912;52.754;5.994;2022-09-13T00:07:33;32.95;;;24.55;;
59127;SDS011;44912;52.754;5.994;2022-09-13T00:09:59;32.35;;;25.42;;
59127;SDS011;44912;52.754;5.994;2022-09-13T00:12:25;32.80;;;25.15;;
59127;SDS011;44912;52.754;5.994;2022-09-13T00:14:50;34.78;;;24.63;;
59127;SDS011;44912;52.754;5.994;2022-09-13T00:17:16;32.45;;;24.48;;
59127;SDS011;44912;52.754;5.994;2022-09-13T00:19:42;31.90;;;24.33;;
59127;SDS011;44912;52.754;5.994;2022-09-13T00:22:07;29.63;;;22.83;;
59127;SDS011;44912;52.754;5.994;2022-09-13T00:24:33;37.22;;;25.88;;
59127;SDS011;44912;52.754;5.994;2022-09-13T00:26:59;33.00;;;24.45;;
59127;SDS011;44912;52.754;5.994;2022-09-13T00:29:25;33.78;;;25.23;;
59127;SDS011;44912;52.754;5.994;2022-09-13T00:31:51;33.47;;;24.75;;
59127;SDS011;44912;52.754;5.994;2022-09-13T00:34:16;31.52;;;24.42;;
59127;SDS011;44912;52.754;5.994;2022-09-13T00:36:42;31.17;;;25.25;;
59127;SDS011;44912;52.754;5.994;2022-09-13T00:39:08;32.20;;;25.13;;
59127;SDS011;44912;52.754;5.994;2022-09-13T00:41:35;28.73;;;23.77;;
59127;SDS011;44912;52.754;5.994;2022-09-13T00:44:01;29.70;;;23.60;;
59127;SDS011;44912;52.754;5.994;2022-09-13T00:49:07;30.38;;;23.20;;
59127;SDS011;44912;52.754;5.994;2022-09-13T00:51:37;27.67;;;22.42;;
59127;SDS011;44912;52.754;5.994;2022-09-13T00:54:05;28.25;;;21.48;;
59127;SDS011;44912;52.754;5.994;2022-09-13T00:56:38;24.00;;;19.85;;
59127;SDS011;44912;52.754;5.994;2022-09-13T00:59:27;27.30;;;20.35;;
59127;SDS011;44912;52.754;5.994;2022-09-13T01:01:59;26.00;;;20.20;;
59127;SDS011;44912;52.754;5.994;2022-09-13T01:04:28;25.67;;;20.23;;
59127;SDS011;44912;52.754;5.994;2022-09-13T01:06:57;23.85;;;19.08;;
59127;SDS011;44912;52.754;5.994;2022-09-13T01:09:26;24.92;;;19.70;;
59127;SDS011;44912;52.754;5.994;2022-09-13T01:11:56;24.70;;;19.20;;
59127;SDS011;44912;52.754;5.994;2022-09-13T01:14:34;23.33;;;18.40;;
59127;SDS011;44912;52.754;5.994;2022-09-13T01:17:01;23.05;;;19.40;;
59127;SDS011;44912;52.754;5.994;2022-09-13T01:19:27;25.13;;;19.77;;
59127;SDS011;44912;52.754;5.994;2022-09-13T01:22:01;21.77;;;17.58;;
59127;SDS011;44912;52.754;5.994;2022-09-13T01:27:27;24.10;;;18.08;;
59127;SDS011;44912;52.754;5.994;2022-09-13T01:35:36;22.10;;;16.27;;
59127;SDS011;44912;52.754;5.994;2022-09-13T01:43:56;22.23;;;17.48;;
59127;SDS011;44912;52.754;5.994;2022-09-13T01:46:40;21.08;;;16.83;;
59127;SDS011;44912;52.754;5.994;2022-09-13T01:49:16;21.77;;;15.88;;
59127;SDS011;44912;52.754;5.994;2022-09-13T01:55:23;19.98;;;16.58;;
59127;SDS011;44912;52.754;5.994;2022-09-13T01:57:43;21.63;;;15.52;;
59127;SDS011;44912;52.754;5.994;2022-09-13T02:00:15;20.05;;;16.50;;
59127;SDS011;44912;52.754;5.994;2022-09-13T02:02:44;19.77;;;15.10;;
59127;SDS011;44912;52.754;5.994;2022-09-13T02:05:32;19.20;;;15.88;;
59127;SDS011;44912;52.754;5.994;2022-09-13T02:08:12;18.05;;;14.85;;
59127;SDS011;44912;52.754;5.994;2022-09-13T02:11:06;20.15;;;16.25;;
59127;SDS011;44912;52.754;5.994;2022-09-13T02:13:38;18.63;;;16.23;;
59127;SDS011;44912;52.754;5.994;2022-09-13T02:16:10;17.58;;;14.55;;
59127;SDS011;44912;52.754;5.994;2022-09-13T02:18:41;19.90;;;16.33;;
59127;SDS011;44912;52.754;5.994;2022-09-13T02:21:21;21.75;;;15.45;;
59127;SDS011;44912;52.754;5.994;2022-09-13T02:23:52;17.52;;;14.70;;
59127;SDS011;44912;52.754;5.994;2022-09-13T02:26:24;17.75;;;15.43;;
59127;SDS011;44912;52.754;5.994;2022-09-13T02:28:53;17.90;;;15.10;;
59127;SDS011;44912;52.754;5.994;2022-09-13T02:31:26;18.90;;;15.45;;
59127;SDS011;44912;52.754;5.994;2022-09-13T02:34:18;18.05;;;14.25;;
59127;SDS011;44912;52.754;5.994;2022-09-13T02:36:48;19.85;;;14.68;;
59127;SDS011;44912;52.754;5.994;2022-09-13T02:39:17;20.83;;;14.98;;
59127;SDS011;44912;52.754;5.994;2022-09-13T02:41:50;19.23;;;15.10;;
59127;SDS011;44912;52.754;5.994;2022-09-13T02:44:32;18.50;;;15.05;;
59127;SDS011;44912;52.754;5.994;2022-09-13T03:00:45;22.05;;;16.02;;
59127;SDS011;44912;52.754;5.994;2022-09-13T03:03:12;22.73;;;17.27;;
59127;SDS011;44912;52.754;5.994;2022-09-13T03:05:40;21.92;;;18.35;;
59127;SDS011;44912;52.754;5.994;2022-09-13T03:08:06;22.48;;;17.63;;
59127;SDS011;44912;52.754;5.994;2022-09-13T03:17:03;23.70;;;17.50;;
59127;SDS011;44912;52.754;5.994;2022-09-13T03:25:30;21.05;;;17.20;;
59127;SDS011;44912;52.754;5.994;2022-09-13T03:36:45;19.73;;;15.50;;
59127;SDS011;44912;52.754;5.994;2022-09-13T03:39:24;21.75;;;16.88;;
59127;SDS011;44912;52.754;5.994;2022-09-13T03:42:00;20.98;;;15.95;;
59127;SDS011;44912;52.754;5.994;2022-09-13T03:44:29;21.75;;;16.92;;
59127;SDS011;44912;52.754;5.994;2022-09-13T03:46:57;20.85;;;16.13;;
59127;SDS011;44912;52.754;5.994;2022-09-13T03:49:26;21.27;;;16.05;;
59127;SDS011;44912;52.754;5.994;2022-09-13T03:51:53;22.17;;;16.95;;
59127;SDS011;44912;52.754;5.994;2022-09-13T03:54:20;20.67;;;16.80;;
59127;SDS011;44912;52.754;5.994;2022-09-13T03:57:04;23.60;;;17.27;;
59127;SDS011;44912;52.754;5.994;2022-09-13T03:59:33;23.52;;;16.63;;
59127;SDS011;44912;52.754;5.994;2022-09-13T04:02:03;20.20;;;15.77;;
59127;SDS011;44912;52.754;5.994;2022-09-13T04:04:31;19.42;;;16.08;;
59127;SDS011;44912;52.754;5.994;2022-09-13T04:06:57;19.92;;;16.33;;
59127;SDS011;44912;52.754;5.994;2022-09-13T04:09:28;20.33;;;16.33;;
59127;SDS011;44912;52.754;5.994;2022-09-13T04:11:54;20.55;;;15.20;;
59127;SDS011;44912;52.754;5.994;2022-09-13T04:14:20;22.20;;;16.58;;
59127;SDS011;44912;52.754;5.994;2022-09-13T04:16:46;20.60;;;15.60;;
59127;SDS011;44912;52.754;5.994;2022-09-13T04:19:11;19.75;;;14.75;;
59127;SDS011;44912;52.754;5.994;2022-09-13T04:21:37;20.55;;;15.55;;
59127;SDS011;44912;52.754;5.994;2022-09-13T04:24:03;20.92;;;14.73;;
59127;SDS011;44912;52.754;5.994;2022-09-13T04:26:28;21.25;;;15.20;;
59127;SDS011;44912;52.754;5.994;2022-09-13T04:28:54;20.67;;;14.30;;
59127;SDS011;44912;52.754;5.994;2022-09-13T04:31:20;21.77;;;13.95;;
59127;SDS011;44912;52.754;5.994;2022-09-13T04:33:45;21.52;;;14.80;;
59127;SDS011;44912;52.754;5.994;2022-09-13T04:36:11;14.23;;;10.60;;
59127;SDS011;44912;52.754;5.994;2022-09-13T04:38:36;12.40;;;7.18;;
59127;SDS011;44912;52.754;5.994;2022-09-13T04:41:02;12.38;;;6.97;;
59127;SDS011;44912;52.754;5.994;2022-09-13T04:43:27;10.45;;;6.07;;
59127;SDS011;44912;52.754;5.994;2022-09-13T04:45:53;10.63;;;5.78;;
59127;SDS011;44912;52.754;5.994;2022-09-13T04:48:23;12.00;;;6.93;;
59127;SDS011;44912;52.754;5.994;2022-09-13T04:50:48;12.05;;;6.53;;
59127;SDS011;44912;52.754;5.994;2022-09-13T04:53:14;10.73;;;6.15;;
59127;SDS011;44912;52.754;5.994;2022-09-13T04:55:40;10.02;;;5.18;;
59127;SDS011;44912;52.754;5.994;2022-09-13T04:58:05;8.95;;;4.22;;
59127;SDS011;44912;52.754;5.994;2022-09-13T05:00:31;8.27;;;2.80;;
59127;SDS011;44912;52.754;5.994;2022-09-13T05:02:57;6.10;;;2.53;;
59127;SDS011;44912;52.754;5.994;2022-09-13T05:05:23;7.90;;;2.30;;
59127;SDS011;44912;52.754;5.994;2022-09-13T05:07:50;8.68;;;2.25;;
59127;SDS011;44912;52.754;5.994;2022-09-13T05:10:16;5.22;;;1.70;;
59127;SDS011;44912;52.754;5.994;2022-09-13T05:12:42;7.35;;;1.83;;
59127;SDS011;44912;52.754;5.994;2022-09-13T05:15:08;7.95;;;1.98;;
59127;SDS011;44912;52.754;5.994;2022-09-13T05:17:34;8.32;;;1.73;;
59127;SDS011;44912;52.754;5.994;2022-09-13T05:20:00;9.63;;;1.60;;
59127;SDS011;44912;52.754;5.994;2022-09-13T05:22:26;6.05;;;1.52;;
59127;SDS011;44912;52.754;5.994;2022-09-13T05:24:51;7.65;;;1.45;;
59127;SDS011;44912;52.754;5.994;2022-09-13T05:27:17;4.95;;;1.70;;
59127;SDS011;44912;52.754;5.994;2022-09-13T05:29:42;4.70;;;1.40;;
59127;SDS011;44912;52.754;5.994;2022-09-13T05:32:08;7.60;;;2.00;;
59127;SDS011;44912;52.754;5.994;2022-09-13T05:34:33;2.78;;;1.40;;
59127;SDS011;44912;52.754;5.994;2022-09-13T05:36:59;6.88;;;1.60;;
59127;SDS011;44912;52.754;5.994;2022-09-13T05:39:24;5.82;;;1.77;;
59127;SDS011;44912;52.754;5.994;2022-09-13T05:41:50;6.68;;;1.60;;
59127;SDS011;44912;52.754;5.994;2022-09-13T05:44:16;4.60;;;1.80;;
59127;SDS011;44912;52.754;5.994;2022-09-13T05:46:41;5.63;;;1.80;;
59127;SDS011;44912;52.754;5.994;2022-09-13T05:49:10;6.25;;;1.60;;
59127;SDS011;44912;52.754;5.994;2022-09-13T05:51:37;8.68;;;1.80;;
59127;SDS011;44912;52.754;5.994;2022-09-13T05:54:03;5.32;;;1.70;;
59127;SDS011;44912;52.754;5.994;2022-09-13T05:56:29;4.80;;;1.50;;
59127;SDS011;44912;52.754;5.994;2022-09-13T05:58:56;3.80;;;1.88;;
59127;SDS011;44912;52.754;5.994;2022-09-13T06:01:23;6.25;;;2.08;;
59127;SDS011;44912;52.754;5.994;2022-09-13T06:03:51;5.90;;;2.03;;
59127;SDS011;44912;52.754;5.994;2022-09-13T06:06:19;6.82;;;2.78;;
59127;SDS011;44912;52.754;5.994;2022-09-13T06:08:45;7.88;;;2.72;;
59127;SDS011;44912;52.754;5.994;2022-09-13T06:11:12;8.75;;;2.90;;
59127;SDS011;44912;52.754;5.994;2022-09-13T06:13:39;8.02;;;2.67;;
59127;SDS011;44912;52.754;5.994;2022-09-13T06:16:07;7.82;;;2.80;;
59127;SDS011;44912;52.754;5.994;2022-09-13T06:18:34;9.85;;;2.85;;
59127;SDS011;44912;52.754;5.994;2022-09-13T06:21:05;7.90;;;2.25;;
59127;SDS011;44912;52.754;5.994;2022-09-13T06:23:32;6.63;;;2.53;;
59127;SDS011;44912;52.754;5.994;2022-09-13T06:26:07;7.80;;;2.60;;
59127;SDS011;44912;52.754;5.994;2022-09-13T06:28:34;10.23;;;2.90;;
59127;SDS011;44912;52.754;5.994;2022-09-13T06:33:27;9.85;;;2.65;;
59127;SDS011;44912;52.754;5.994;2022-09-13T06:35:53;7.75;;;2.30;;
59127;SDS011;44912;52.754;5.994;2022-09-13T06:38:18;6.22;;;2.30;;
59127;SDS011;44912;52.754;5.994;2022-09-13T06:40:44;6.10;;;2.70;;
59127;SDS011;44912;52.754;5.994;2022-09-13T06:43:10;6.07;;;2.72;;
59127;SDS011;44912;52.754;5.994;2022-09-13T06:45:35;7.28;;;2.90;;
59127;SDS011;44912;52.754;5.994;2022-09-13T06:48:01;8.35;;;2.97;;
59127;SDS011;44912;52.754;5.994;2022-09-13T06:50:27;7.22;;;2.92;;
59127;SDS011;44912;52.754;5.994;2022-09-13T06:52:52;8.90;;;3.58;;
59127;SDS011;44912;52.754;5.994;2022-09-13T06:55:20;10.55;;;3.70;;
59127;SDS011;44912;52.754;5.994;2022-09-13T06:57:46;7.95;;;3.72;;
59127;SDS011;44912;52.754;5.994;2022-09-13T07:00:11;7.75;;;3.72;;
59127;SDS011;44912;52.754;5.994;2022-09-13T07:02:37;9.63;;;4.10;;
59127;SDS011;44912;52.754;5.994;2022-09-13T07:05:03;7.10;;;3.53;;
59127;SDS011;44912;52.754;5.994;2022-09-13T07:07:29;9.02;;;4.35;;
59127;SDS011;44912;52.754;5.994;2022-09-13T07:09:55;5.80;;;3.80;;
59127;SDS011;44912;52.754;5.994;2022-09-13T07:12:20;7.28;;;4.05;;
59127;SDS011;44912;52.754;5.994;2022-09-13T07:14:46;7.35;;;3.60;;
59127;SDS011;44912;52.754;5.994;2022-09-13T07:17:12;7.63;;;3.80;;
59127;SDS011;44912;52.754;5.994;2022-09-13T07:19:37;7.40;;;3.30;;
59127;SDS011;44912;52.754;5.994;2022-09-13T07:22:03;6.70;;;3.33;;
59127;SDS011;44912;52.754;5.994;2022-09-13T07:24:29;11.73;;;3.33;;
59127;SDS011;44912;52.754;5.994;2022-09-13T07:26:54;7.13;;;2.67;;
59127;SDS011;44912;52.754;5.994;2022-09-13T07:29:20;10.30;;;2.95;;
59127;SDS011;44912;52.754;5.994;2022-09-13T07:31:48;6.30;;;2.63;;
59127;SDS011;44912;52.754;5.994;2022-09-13T07:34:16;7.93;;;3.03;;
59127;SDS011;44912;52.754;5.994;2022-09-13T07:36:43;10.55;;;2.40;;
59127;SDS011;44912;52.754;5.994;2022-09-13T07:39:10;7.35;;;2.20;;
59127;SDS011;44912;52.754;5.994;2022-09-13T07:41:36;4.40;;;2.00;;
59127;SDS011;44912;52.754;5.994;2022-09-13T07:44:02;4.82;;;1.75;;
59127;SDS011;44912;52.754;5.994;2022-09-13T07:46:33;7.20;;;1.70;;
59127;SDS011;44912;52.754;5.994;2022-09-13T07:49:05;4.30;;;1.50;;
59127;SDS011;44912;52.754;5.994;2022-09-13T07:51:32;9.05;;;1.67;;
59127;SDS011;44912;52.754;5.994;2022-09-13T07:54:00;6.05;;;1.70;;
59127;SDS011;44912;52.754;5.994;2022-09-13T07:56:32;9.48;;;2.55;;
59127;SDS011;44912;52.754;5.994;2022-09-13T07:59:00;5.43;;;1.90;;
59127;SDS011;44912;52.754;5.994;2022-09-13T08:01:35;10.90;;;2.42;;
59127;SDS011;44912;52.754;5.994;2022-09-13T08:04:03;22.38;;;8.63;;
59127;SDS011;44912;52.754;5.994;2022-09-13T08:06:31;26.08;;;13.18;;
59127;SDS011;44912;52.754;5.994;2022-09-13T08:08:58;25.65;;;14.10;;
59127;SDS011;44912;52.754;5.994;2022-09-13T08:11:25;20.13;;;9.02;;
59127;SDS011;44912;52.754;5.994;2022-09-13T08:13:59;19.73;;;10.98;;
59127;SDS011;44912;52.754;5.994;2022-09-13T08:16:26;14.85;;;5.57;;
59127;SDS011;44912;52.754;5.994;2022-09-13T08:18:54;11.77;;;5.05;;
59127;SDS011;44912;52.754;5.994;2022-09-13T08:21:21;11.02;;;2.78;;
59127;SDS011;44912;52.754;5.994;2022-09-13T08:23:48;13.90;;;5.20;;
59127;SDS011;44912;52.754;5.994;2022-09-13T08:26:14;13.13;;;3.45;;
59127;SDS011;44912;52.754;5.994;2022-09-13T08:28:41;7.82;;;1.70;;
59127;SDS011;44912;52.754;5.994;2022-09-13T08:31:14;7.78;;;1.48;;
59127;SDS011;44912;52.754;5.994;2022-09-13T08:33:42;7.00;;;1.40;;
59127;SDS011;44912;52.754;5.994;2022-09-13T08:36:09;6.63;;;1.30;;
59127;SDS011;44912;52.754;5.994;2022-09-13T08:38:34;6.50;;;1.30;;
59127;SDS011;44912;52.754;5.994;2022-09-13T08:41:23;6.20;;;1.38;;
59127;SDS011;44912;52.754;5.994;2022-09-13T08:46:48;5.30;;;1.13;;
59127;SDS011;44912;52.754;5.994;2022-09-13T08:49:22;7.07;;;1.13;;
59127;SDS011;44912;52.754;5.994;2022-09-13T08:51:51;4.25;;;1.15;;
59127;SDS011;44912;52.754;5.994;2022-09-13T08:54:20;6.22;;;1.20;;
59127;SDS011;44912;52.754;5.994;2022-09-13T09:05:19;5.03;;;1.20;;
59127;SDS011;44912;52.754;5.994;2022-09-13T09:07:48;6.63;;;1.00;;
59127;SDS011;44912;52.754;5.994;2022-09-13T09:10:21;5.90;;;1.08;;
59127;SDS011;44912;52.754;5.994;2022-09-13T09:12:55;5.65;;;1.27;;
59127;SDS011;44912;52.754;5.994;2022-09-13T09:15:56;3.15;;;0.75;;
59127;SDS011;44912;52.754;5.994;2022-09-13T09:18:34;8.10;;;1.10;;
59127;SDS011;44912;52.754;5.994;2022-09-13T09:21:09;9.00;;;2.72;;
59127;SDS011;44912;52.754;5.994;2022-09-13T09:23:40;5.82;;;1.38;;
59127;SDS011;44912;52.754;5.994;2022-09-13T09:26:23;4.18;;;1.30;;
59127;SDS011;44912;52.754;5.994;2022-09-13T09:37:28;9.70;;;3.60;;
59127;SDS011;44912;52.754;5.994;2022-09-13T09:39:57;14.23;;;5.38;;
59127;SDS011;44912;52.754;5.994;2022-09-13T09:42:29;12.70;;;4.10;;
59127;SDS011;44912;52.754;5.994;2022-09-13T09:45:05;8.05;;;2.25;;
59127;SDS011;44912;52.754;5.994;2022-09-13T09:47:49;3.50;;;0.90;;
59127;SDS011;44912;52.754;5.994;2022-09-13T09:50:23;6.93;;;1.48;;
59127;SDS011;44912;52.754;5.994;2022-09-13T09:56:22;7.63;;;2.08;;
59127;SDS011;44912;52.754;5.994;2022-09-13T09:58:35;8.70;;;2.05;;
59127;SDS011;44912;52.754;5.994;2022-09-13T10:01:03;8.73;;;2.83;;
59127;SDS011;44912;52.754;5.994;2022-09-13T10:03:30;6.05;;;1.58;;
59127;SDS011;44912;52.754;5.994;2022-09-13T10:08:32;9.23;;;2.65;;
59127;SDS011;44912;52.754;5.994;2022-09-13T10:10:59;4.85;;;0.90;;
59127;SDS011;44912;52.754;5.994;2022-09-13T10:13:26;7.20;;;1.48;;
59127;SDS011;44912;52.754;5.994;2022-09-13T10:18:19;7.75;;;2.70;;
59127;SDS011;44912;52.754;5.994;2022-09-13T10:21:06;5.60;;;1.83;;
59127;SDS011;44912;52.754;5.994;2022-09-13T10:28:35;5.57;;;1.20;;
59127;SDS011;44912;52.754;5.994;2022-09-13T10:31:19;2.70;;;0.77;;
59127;SDS011;44912;52.754;5.994;2022-09-13T10:36:24;4.72;;;0.73;;
59127;SDS011;44912;52.754;5.994;2022-09-13T10:41:28;6.97;;;0.80;;
59127;SDS011;44912;52.754;5.994;2022-09-13T10:43:57;7.97;;;1.58;;
59127;SDS011;44912;52.754;5.994;2022-09-13T10:46:24;6.57;;;1.25;;
59127;SDS011;44912;52.754;5.994;2022-09-13T10:48:52;7.43;;;1.27;;
59127;SDS011;44912;52.754;5.994;2022-09-13T10:53:49;4.90;;;0.82;;
59127;SDS011;44912;52.754;5.994;2022-09-13T10:56:20;7.60;;;1.10;;
59127;SDS011;44912;52.754;5.994;2022-09-13T10:58:49;7.68;;;0.90;;
59127;SDS011;44912;52.754;5.994;2022-09-13T11:07:55;6.80;;;1.10;;
59127;SDS011;44912;52.754;5.994;2022-09-13T11:18:15;5.80;;;0.80;;
59127;SDS011;44912;52.754;5.994;2022-09-13T11:20:44;3.90;;;0.98;;
59127;SDS011;44912;52.754;5.994;2022-09-13T11:32:01;6.47;;;0.85;;
59127;SDS011;44912;52.754;5.994;2022-09-13T11:35:23;4.82;;;1.15;;
59127;SDS011;44912;52.754;5.994;2022-09-13T11:37:48;6.28;;;1.00;;
59127;SDS011;44912;52.754;5.994;2022-09-13T11:51:35;8.20;;;1.08;;
59127;SDS011;44912;52.754;5.994;2022-09-13T11:57:30;6.38;;;1.13;;
59127;SDS011;44912;52.754;5.994;2022-09-13T12:05:01;5.70;;;0.93;;
59127;SDS011;44912;52.754;5.994;2022-09-13T12:07:36;5.18;;;1.10;;
59127;SDS011;44912;52.754;5.994;2022-09-13T12:10:53;6.03;;;0.90;;
59127;SDS011;44912;52.754;5.994;2022-09-13T12:13:23;5.10;;;0.80;;
59127;SDS011;44912;52.754;5.994;2022-09-13T12:16:04;3.65;;;0.60;;
59127;SDS011;44912;52.754;5.994;2022-09-13T12:18:34;6.05;;;0.85;;
59127;SDS011;44912;52.754;5.994;2022-09-13T12:21:07;3.85;;;0.77;;
59127;SDS011;44912;52.754;5.994;2022-09-13T12:28:52;7.72;;;1.25;;
59127;SDS011;44912;52.754;5.994;2022-09-13T12:31:22;4.68;;;0.77;;
59127;SDS011;44912;52.754;5.994;2022-09-13T12:33:53;3.67;;;0.82;;
59127;SDS011;44912;52.754;5.994;2022-09-13T12:39:07;4.35;;;0.88;;
59127;SDS011;44912;52.754;5.994;2022-09-13T12:44:54;6.75;;;0.90;;
59127;SDS011;44912;52.754;5.994;2022-09-13T12:50:56;8.35;;;0.82;;
59127;SDS011;44912;52.754;5.994;2022-09-13T12:56:58;6.35;;;1.35;;
59127;SDS011;44912;52.754;5.994;2022-09-13T13:07:56;2.97;;;0.80;;
59127;SDS011;44912;52.754;5.994;2022-09-13T13:10:26;5.68;;;0.88;;
59127;SDS011;44912;52.754;5.994;2022-09-13T13:21:20;5.93;;;0.90;;
59127;SDS011;44912;52.754;5.994;2022-09-13T13:29:18;5.85;;;1.02;;
59127;SDS011;44912;52.754;5.994;2022-09-13T13:36:48;4.85;;;0.88;;
59127;SDS011;44912;52.754;5.994;2022-09-13T13:41:56;6.85;;;1.17;;
59127;SDS011;44912;52.754;5.994;2022-09-13T13:49:43;4.65;;;0.95;;
59127;SDS011;44912;52.754;5.994;2022-09-13T13:57:30;4.38;;;0.52;;
59127;SDS011;44912;52.754;5.994;2022-09-13T14:02:44;7.65;;;0.95;;
59127;SDS011;44912;52.754;5.994;2022-09-13T14:16:08;7.47;;;1.00;;
59127;SDS011;44912;52.754;5.994;2022-09-13T14:18:47;8.18;;;1.27;;
59127;SDS011;44912;52.754;5.994;2022-09-13T14:21:34;9.80;;;1.40;;
59127;SDS011;44912;52.754;5.994;2022-09-13T14:24:33;9.38;;;1.52;;
59127;SDS011;44912;52.754;5.994;2022-09-13T14:26:52;10.65;;;2.60;;
59127;SDS011;44912;52.754;5.994;2022-09-13T14:29:22;12.88;;;2.92;;
59127;SDS011;44912;52.754;5.994;2022-09-13T14:31:52;8.40;;;1.50;;
59127;SDS011;44912;52.754;5.994;2022-09-13T14:34:29;11.10;;;1.33;;
59127;SDS011;44912;52.754;5.994;2022-09-13T14:37:00;7.20;;;1.05;;
59127;SDS011;44912;52.754;5.994;2022-09-13T14:39:29;23.15;;;6.45;;
59127;SDS011;44912;52.754;5.994;2022-09-13T14:42:05;14.40;;;4.43;;
59127;SDS011;44912;52.754;5.994;2022-09-13T14:44:41;12.43;;;4.28;;
59127;SDS011;44912;52.754;5.994;2022-09-13T14:50:11;8.13;;;1.25;;
59127;SDS011;44912;52.754;5.994;2022-09-13T14:52:43;6.55;;;1.30;;
59127;SDS011;44912;52.754;5.994;2022-09-13T14:55:15;8.50;;;1.40;;
59127;SDS011;44912;52.754;5.994;2022-09-13T14:57:46;11.40;;;3.03;;
59127;SDS011;44912;52.754;5.994;2022-09-13T15:00:16;19.90;;;7.68;;
59127;SDS011;44912;52.754;5.994;2022-09-13T15:02:46;31.90;;;12.25;;
59127;SDS011;44912;52.754;5.994;2022-09-13T15:05:16;44.10;;;17.73;;
59127;SDS011;44912;52.754;5.994;2022-09-13T15:07:44;31.15;;;10.55;;
59127;SDS011;44912;52.754;5.994;2022-09-13T15:12:54;11.00;;;2.75;;
59127;SDS011;44912;52.754;5.994;2022-09-13T15:15:39;9.48;;;1.88;;
59127;SDS011;44912;52.754;5.994;2022-09-13T15:23:12;4.80;;;1.00;;
59127;SDS011;44912;52.754;5.994;2022-09-13T15:25:40;7.82;;;1.27;;
59127;SDS011;44912;52.754;5.994;2022-09-13T15:28:19;5.93;;;1.23;;
59127;SDS011;44912;52.754;5.994;2022-09-13T15:30:52;7.40;;;1.23;;
59127;SDS011;44912;52.754;5.994;2022-09-13T15:33:23;5.45;;;0.90;;
59127;SDS011;44912;52.754;5.994;2022-09-13T15:39:02;5.97;;;0.90;;
59127;SDS011;44912;52.754;5.994;2022-09-13T15:41:28;7.22;;;1.00;;
59127;SDS011;44912;52.754;5.994;2022-09-13T15:43:57;4.97;;;0.80;;
59127;SDS011;44912;52.754;5.994;2022-09-13T15:46:23;7.10;;;2.08;;
59127;SDS011;44912;52.754;5.994;2022-09-13T15:48:51;8.82;;;1.10;;
59127;SDS011;44912;52.754;5.994;2022-09-13T15:51:19;6.82;;;1.23;;
59127;SDS011;44912;52.754;5.994;2022-09-13T15:53:46;6.03;;;1.17;;
59127;SDS011;44912;52.754;5.994;2022-09-13T15:58:56;15.57;;;2.85;;
59127;SDS011;44912;52.754;5.994;2022-09-13T16:01:22;10.88;;;2.63;;
59127;SDS011;44912;52.754;5.994;2022-09-13T16:03:48;12.07;;;3.00;;
59127;SDS011;44912;52.754;5.994;2022-09-13T16:06:13;13.55;;;2.88;;
59127;SDS011;44912;52.754;5.994;2022-09-13T16:08:39;8.63;;;2.05;;
59127;SDS011;44912;52.754;5.994;2022-09-13T16:11:05;9.35;;;1.83;;
59127;SDS011;44912;52.754;5.994;2022-09-13T16:13:32;6.20;;;1.13;;
59127;SDS011;44912;52.754;5.994;2022-09-13T16:15:58;8.18;;;1.33;;
59127;SDS011;44912;52.754;5.994;2022-09-13T16:18:23;8.40;;;1.00;;
59127;SDS011;44912;52.754;5.994;2022-09-13T16:20:49;7.53;;;1.27;;
59127;SDS011;44912;52.754;5.994;2022-09-13T16:23:15;9.45;;;1.23;;
59127;SDS011;44912;52.754;5.994;2022-09-13T16:25:41;5.93;;;1.15;;
59127;SDS011;44912;52.754;5.994;2022-09-13T16:28:14;6.43;;;1.08;;
59127;SDS011;44912;52.754;5.994;2022-09-13T16:30:42;8.45;;;1.02;;
59127;SDS011;44912;52.754;5.994;2022-09-13T16:33:08;7.15;;;1.17;;
59127;SDS011;44912;52.754;5.994;2022-09-13T16:35:33;8.35;;;1.15;;
59127;SDS011;44912;52.754;5.994;2022-09-13T16:37:59;6.97;;;1.00;;
59127;SDS011;44912;52.754;5.994;2022-09-13T16:40:25;6.90;;;1.00;;
59127;SDS011;44912;52.754;5.994;2022-09-13T16:42:50;6.97;;;1.00;;
59127;SDS011;44912;52.754;5.994;2022-09-13T16:45:16;5.20;;;0.93;;
59127;SDS011;44912;52.754;5.994;2022-09-13T16:47:42;9.65;;;1.45;;
59127;SDS011;44912;52.754;5.994;2022-09-13T16:50:08;5.65;;;0.77;;
59127;SDS011;44912;52.754;5.994;2022-09-13T16:52:34;9.73;;;1.17;;
59127;SDS011;44912;52.754;5.994;2022-09-13T16:55:00;8.35;;;1.08;;
59127;SDS011;44912;52.754;5.994;2022-09-13T16:57:26;8.45;;;1.20;;
59127;SDS011;44912;52.754;5.994;2022-09-13T16:59:52;6.47;;;1.23;;
59127;SDS011;44912;52.754;5.994;2022-09-13T17:02:20;7.22;;;1.15;;
59127;SDS011;44912;52.754;5.994;2022-09-13T17:04:46;6.88;;;1.63;;
59127;SDS011;44912;52.754;5.994;2022-09-13T17:07:12;6.65;;;1.20;;
59127;SDS011;44912;52.754;5.994;2022-09-13T17:09:38;9.50;;;1.40;;
59127;SDS011;44912;52.754;5.994;2022-09-13T17:12:05;6.80;;;1.30;;
59127;SDS011;44912;52.754;5.994;2022-09-13T17:14:32;8.35;;;1.70;;
59127;SDS011;44912;52.754;5.994;2022-09-13T17:16:58;12.23;;;3.55;;
59127;SDS011;44912;52.754;5.994;2022-09-13T17:19:25;13.77;;;4.47;;
59127;SDS011;44912;52.754;5.994;2022-09-13T17:21:57;14.13;;;4.22;;
59127;SDS011;44912;52.754;5.994;2022-09-13T17:24:23;13.43;;;3.60;;
59127;SDS011;44912;52.754;5.994;2022-09-13T17:26:51;12.10;;;2.08;;
59127;SDS011;44912;52.754;5.994;2022-09-13T17:29:16;8.75;;;2.03;;
59127;SDS011;44912;52.754;5.994;2022-09-13T17:31:42;8.95;;;1.50;;
59127;SDS011;44912;52.754;5.994;2022-09-13T17:34:08;8.40;;;1.92;;
59127;SDS011;44912;52.754;5.994;2022-09-13T17:36:34;11.18;;;2.53;;
59127;SDS011;44912;52.754;5.994;2022-09-13T17:39:00;24.67;;;9.48;;
59127;SDS011;44912;52.754;5.994;2022-09-13T17:41:26;58.47;;;25.27;;
59127;SDS011;44912;52.754;5.994;2022-09-13T17:43:52;82.07;;;33.47;;
59127;SDS011;44912;52.754;5.994;2022-09-13T17:46:19;85.65;;;38.05;;
59127;SDS011;44912;52.754;5.994;2022-09-13T17:48:47;75.38;;;32.22;;
59127;SDS011;44912;52.754;5.994;2022-09-13T17:51:18;48.75;;;19.05;;
59127;SDS011;44912;52.754;5.994;2022-09-13T17:53:49;45.53;;;18.23;;
59127;SDS011;44912;52.754;5.994;2022-09-13T17:56:16;48.38;;;21.08;;
59127;SDS011;44912;52.754;5.994;2022-09-13T17:58:54;39.92;;;17.73;;
59127;SDS011;44912;52.754;5.994;2022-09-13T18:01:21;47.70;;;21.65;;
59127;SDS011;44912;52.754;5.994;2022-09-13T18:03:47;226.20;;;107.63;;
59127;SDS011;44912;52.754;5.994;2022-09-13T18:06:13;344.40;;;161.73;;
59127;SDS011;44912;52.754;5.994;2022-09-13T18:08:39;286.98;;;138.27;;
59127;SDS011;44912;52.754;5.994;2022-09-13T18:11:06;296.20;;;136.98;;
59127;SDS011;44912;52.754;5.994;2022-09-13T18:13:36;344.55;;;163.18;;
59127;SDS011;44912;52.754;5.994;2022-09-13T18:16:06;293.30;;;139.02;;
59127;SDS011;44912;52.754;5.994;2022-09-13T18:18:34;257.52;;;122.18;;
59127;SDS011;44912;52.754;5.994;2022-09-13T18:21:04;149.20;;;74.60;;
59127;SDS011;44912;52.754;5.994;2022-09-13T18:23:31;108.65;;;54.70;;
59127;SDS011;44912;52.754;5.994;2022-09-13T18:25:58;79.82;;;38.45;;
59127;SDS011;44912;52.754;5.994;2022-09-13T18:28:29;61.75;;;30.27;;
59127;SDS011;44912;52.754;5.994;2022-09-13T18:30:56;51.45;;;23.80;;
59127;SDS011;44912;52.754;5.994;2022-09-13T18:33:23;96.70;;;48.95;;
59127;SDS011;44912;52.754;5.994;2022-09-13T18:36:00;222.32;;;115.05;;
59127;SDS011;44912;52.754;5.994;2022-09-13T18:38:35;201.40;;;101.20;;